Time;durP1;ratioP1;P1;durP2;ratioP2;P2;SDS_P1;SDS_P2;PMS_P1;PMS_P2;Temp;Humidity;BMP_temperature;BMP_pressure;BME280_temperature;BME280_humidity;BME280_pressure;Samples;Min_cycle;Max_cycle;Signal;HPM_P1;HPM_P2
2023/09/08 00:01:51;;;;;;;18.75;9.93;;;;;;;-147.95;100.00;58458.38;5072778;28;20020;-78
2023/09/08 00:04:16;;;;;;;22.05;11.18;;;;;;;-147.95;100.00;58458.38;5087682;28;20062;-78
2023/09/08 00:06:42;;;;;;;24.10;10.82;;;;;;;-147.95;100.00;58458.38;5083691;28;20036;-78
2023/09/08 00:09:07;;;;;;;20.27;11.00;;;;;;;-147.95;100.00;58458.38;5088888;28;20032;-78
2023/09/08 00:11:33;;;;;;;19.25;10.50;;;;;;;-147.95;100.00;58458.38;5084049;28;20027;-78
2023/09/08 00:13:58;;;;;;;24.73;11.68;;;;;;;-147.95;100.00;58458.38;5072168;28;20562;-78
2023/09/08 00:16:24;;;;;;;21.00;11.27;;;;;;;-147.95;100.00;58458.38;5084668;28;20181;-77
2023/09/08 00:18:49;;;;;;;27.15;12.48;;;;;;;-147.95;100.00;58458.38;5070428;28;20040;-78
2023/09/08 00:21:15;;;;;;;27.60;11.40;;;;;;;-147.95;100.00;58458.38;5080783;28;20449;-78
2023/09/08 00:23:40;;;;;;;20.80;12.23;;;;;;;-147.95;100.00;58458.38;5081885;28;20748;-78
2023/09/08 00:26:06;;;;;;;24.67;11.48;;;;;;;-147.95;100.00;58458.38;5086545;28;20032;-78
2023/09/08 00:28:32;;;;;;;28.45;11.68;;;;;;;-147.95;100.00;58458.38;5068486;28;20427;-78
2023/09/08 00:30:59;;;;;;;20.90;11.60;;;;;;;-147.95;100.00;58458.38;5082649;28;20036;-78
2023/09/08 00:33:25;;;;;;;20.42;11.18;;;;;;;-147.95;100.00;58458.38;5084150;28;20036;-79
2023/09/08 00:35:50;;;;;;;17.13;10.70;;;;;;;-147.95;100.00;58458.38;5085152;28;20402;-78
2023/09/08 00:38:16;;;;;;;22.23;10.50;;;;;;;-147.95;100.00;58458.38;5086184;28;20379;-78
2023/09/08 00:40:42;;;;;;;18.15;11.18;;;;;;;-147.95;100.00;58458.38;5084711;28;20043;-78
2023/09/08 00:43:07;;;;;;;22.20;11.63;;;;;;;-147.95;100.00;58458.38;5083846;28;20027;-78
2023/09/08 00:45:40;;;;;;;17.67;11.35;;;;;;;-147.95;100.00;58458.38;5068484;28;20115;-78
2023/09/08 00:48:06;;;;;;;21.52;10.85;;;;;;;-147.95;100.00;58458.38;5083159;28;20027;-78
2023/09/08 00:50:32;;;;;;;19.75;11.05;;;;;;;-147.95;100.00;58458.38;5084147;28;20044;-78
2023/09/08 00:52:58;;;;;;;17.38;10.98;;;;;;;-147.95;100.00;58458.38;5070431;28;20438;-78
2023/09/08 00:55:24;;;;;;;20.50;10.90;;;;;;;-147.95;100.00;58458.38;5069016;28;20036;-78
2023/09/08 00:57:50;;;;;;;19.48;10.85;;;;;;;-147.95;100.00;58458.38;5085365;28;20034;-78
2023/09/08 01:00:16;;;;;;;21.80;10.50;;;;;;;-147.95;100.00;58458.38;5084841;28;20039;-78
2023/09/08 01:02:43;;;;;;;23.23;13.23;;;;;;;-147.95;100.00;58458.38;5055756;28;20035;-78
2023/09/08 01:05:08;;;;;;;18.50;11.45;;;;;;;-147.95;100.00;58458.38;5086757;28;20494;-78
2023/09/08 01:07:35;;;;;;;20.00;10.82;;;;;;;-147.95;100.00;58458.38;5081284;28;20155;-78
2023/09/08 01:10:06;;;;;;;19.38;11.75;;;;;;;-147.95;100.00;58458.38;5083446;28;20514;-78
2023/09/08 01:12:33;;;;;;;20.95;12.77;;;;;;;-147.95;100.00;58458.38;5083491;28;20031;-78
2023/09/08 01:14:58;;;;;;;18.38;11.60;;;;;;;-147.95;100.00;58458.38;5084281;28;20131;-78
2023/09/08 01:17:24;;;;;;;22.88;13.02;;;;;;;-147.95;100.00;58458.38;5071674;28;20111;-78
2023/09/08 01:19:54;;;;;;;34.78;13.57;;;;;;;-147.95;100.00;58458.38;5068485;28;20117;-79
2023/09/08 01:22:41;;;;;;;41.85;12.00;;;;;;;-147.95;100.00;58458.38;5070685;28;20029;-78
2023/09/08 01:25:19;;;;;;;20.77;11.60;;;;;;;-147.95;100.00;58458.38;5088442;28;20036;-77
2023/09/08 01:27:55;;;;;;;18.83;11.90;;;;;;;-147.95;100.00;58458.38;5087632;28;20418;-78
2023/09/08 01:30:24;;;;;;;26.55;12.52;;;;;;;-147.95;100.00;58458.38;5082936;28;20016;-78
2023/09/08 01:32:50;;;;;;;21.77;12.02;;;;;;;-147.95;100.00;58458.38;5078806;28;20016;-78
2023/09/08 01:35:16;;;;;;;19.73;11.52;;;;;;;-147.95;100.00;58458.38;5084353;28;20090;-78
2023/09/08 01:37:46;;;;;;;20.25;11.90;;;;;;;-147.95;100.00;58458.38;5084198;28;20462;-78
2023/09/08 01:40:12;;;;;;;19.90;11.10;;;;;;;-147.95;100.00;58458.38;5084756;28;20060;-78
2023/09/08 01:42:39;;;;;;;19.33;12.30;;;;;;;-147.95;100.00;58458.38;5082890;28;20021;-78
2023/09/08 01:45:05;;;;;;;22.85;12.52;;;;;;;-147.95;100.00;58458.38;5086447;28;20548;-78
2023/09/08 01:47:31;;;;;;;23.75;12.15;;;;;;;-147.95;100.00;58458.38;5082662;28;20032;-77
2023/09/08 01:49:56;;;;;;;26.40;12.50;;;;;;;-147.95;100.00;58458.38;5063899;28;20020;-86
2023/09/08 01:52:22;;;;;;;18.48;11.82;;;;;;;-147.95;100.00;58458.38;5067946;28;20115;-86
2023/09/08 01:54:47;;;;;;;20.77;11.82;;;;;;;-147.95;100.00;58458.38;5073538;28;20124;-86
2023/09/08 01:57:13;;;;;;;20.35;12.63;;;;;;;-147.95;100.00;58458.38;5071835;28;20059;-86
2023/09/08 01:59:38;;;;;;;19.77;11.82;;;;;;;-147.95;100.00;58458.38;5081842;28;20080;-86
2023/09/08 02:02:04;;;;;;;23.00;11.98;;;;;;;-147.95;100.00;58458.38;5086682;28;20382;-86
2023/09/08 02:04:29;;;;;;;26.48;12.05;;;;;;;-147.95;100.00;58458.38;5066482;28;20039;-87
2023/09/08 02:06:56;;;;;;;26.90;11.55;;;;;;;-147.95;100.00;58458.38;5079558;28;20060;-86
2023/09/08 02:09:22;;;;;;;19.15;13.07;;;;;;;-147.95;100.00;58458.38;5054114;28;20035;-86
2023/09/08 02:11:48;;;;;;;18.17;13.13;;;;;;;-147.95;100.00;58458.38;5085276;28;20081;-86
2023/09/08 02:14:14;;;;;;;23.60;13.93;;;;;;;-147.95;100.00;58458.38;5083107;28;20120;-86
2023/09/08 02:16:39;;;;;;;25.25;14.05;;;;;;;-147.95;100.00;58458.38;5053845;28;20028;-86
2023/09/08 02:19:05;;;;;;;21.95;13.05;;;;;;;-147.95;100.00;58458.38;5087325;28;20474;-86
2023/09/08 02:21:30;;;;;;;24.00;13.68;;;;;;;-147.95;100.00;58458.38;5080400;28;20155;-86
2023/09/08 02:23:56;;;;;;;21.13;12.68;;;;;;;-147.95;100.00;58458.38;5067623;28;20906;-86
2023/09/08 02:26:21;;;;;;;25.25;12.68;;;;;;;-147.95;100.00;58458.38;5069184;28;20495;-86
2023/09/08 02:28:46;;;;;;;21.15;12.55;;;;;;;-147.95;100.00;58458.38;5079059;28;20067;-85
2023/09/08 02:31:12;;;;;;;26.23;13.65;;;;;;;-147.95;100.00;58458.38;5088202;28;20478;-86
2023/09/08 02:33:37;;;;;;;21.67;13.80;;;;;;;-147.95;100.00;58458.38;5070307;28;20035;-86
2023/09/08 02:36:06;;;;;;;26.00;14.38;;;;;;;-147.95;100.00;58458.38;5083372;28;20030;-86
2023/09/08 02:38:32;;;;;;;24.30;14.23;;;;;;;-147.95;100.00;58458.38;5081819;28;20044;-86
2023/09/08 02:40:58;;;;;;;21.90;14.20;;;;;;;-147.95;100.00;58458.38;5081230;28;20027;-86
2023/09/08 02:43:24;;;;;;;24.05;15.13;;;;;;;-147.95;100.00;58458.38;5061967;28;20143;-86
2023/09/08 02:45:49;;;;;;;29.35;14.73;;;;;;;-147.95;100.00;58458.38;5082174;28;20020;-85
2023/09/08 02:48:16;;;;;;;26.67;14.80;;;;;;;-147.95;100.00;58458.38;5082437;28;20035;-86
2023/09/08 02:50:41;;;;;;;30.23;16.13;;;;;;;-147.95;100.00;58458.38;5085555;28;20497;-86
2023/09/08 02:53:07;;;;;;;23.27;14.15;;;;;;;-147.95;100.00;58458.38;5075232;28;20028;-86
2023/09/08 02:55:32;;;;;;;22.60;14.90;;;;;;;-147.95;100.00;58458.38;5072399;28;20031;-85
2023/09/08 02:57:58;;;;;;;32.30;15.73;;;;;;;-147.95;100.00;58458.38;5087666;28;20052;-85
2023/09/08 03:00:24;;;;;;;36.65;15.07;;;;;;;-147.95;100.00;58458.38;5056871;28;20028;-78
2023/09/08 03:02:49;;;;;;;25.65;14.50;;;;;;;-147.95;100.00;58458.38;5073983;28;20082;-78
2023/09/08 03:05:15;;;;;;;35.35;15.18;;;;;;;-147.95;100.00;58458.38;5083161;28;20044;-78
2023/09/08 03:07:40;;;;;;;34.63;15.85;;;;;;;-147.95;100.00;58458.38;5072730;28;20380;-78
2023/09/08 03:10:06;;;;;;;31.30;15.52;;;;;;;-147.95;100.00;58458.38;5071699;28;20064;-77
2023/09/08 03:12:33;;;;;;;29.33;16.55;;;;;;;-147.95;100.00;58458.38;5082752;28;20024;-78
2023/09/08 03:14:58;;;;;;;32.63;17.35;;;;;;;-147.95;100.00;58458.38;5082931;28;20028;-78
2023/09/08 03:17:23;;;;;;;30.48;15.75;;;;;;;-147.95;100.00;58458.38;5083219;28;20399;-78
2023/09/08 03:19:49;;;;;;;47.45;16.85;;;;;;;-147.95;100.00;58458.38;5085354;28;20039;-78
2023/09/08 03:22:15;;;;;;;27.92;16.30;;;;;;;-147.95;100.00;58458.38;5082496;28;20059;-78
2023/09/08 03:24:41;;;;;;;26.00;16.02;;;;;;;-147.95;100.00;58458.38;5081021;28;20118;-78
2023/09/08 03:27:06;;;;;;;23.20;15.05;;;;;;;-147.95;100.00;58458.38;5083900;28;20036;-78
2023/09/08 03:29:32;;;;;;;28.63;14.85;;;;;;;-147.95;100.00;58458.38;5083185;28;20062;-78
2023/09/08 03:31:57;;;;;;;30.90;15.48;;;;;;;-147.95;100.00;58458.38;5076402;28;20068;-78
2023/09/08 03:34:22;;;;;;;24.55;14.57;;;;;;;-147.95;100.00;58458.38;5080390;28;20024;-78
2023/09/08 03:36:49;;;;;;;27.45;16.20;;;;;;;-147.95;100.00;58458.38;5082256;28;20085;-78
2023/09/08 03:39:15;;;;;;;27.67;16.17;;;;;;;-147.95;100.00;58458.38;5084516;28;20063;-78
2023/09/08 03:41:41;;;;;;;34.42;17.60;;;;;;;-147.95;100.00;58458.38;5080609;28;20068;-77
2023/09/08 03:44:06;;;;;;;33.00;17.02;;;;;;;-147.95;100.00;58458.38;5085464;28;20032;-78
2023/09/08 03:46:31;;;;;;;28.60;17.02;;;;;;;-147.95;100.00;58458.38;5088489;28;20024;-78
2023/09/08 03:49:00;;;;;;;26.00;17.48;;;;;;;-147.95;100.00;58458.38;5085205;28;20028;-78
2023/09/08 03:51:28;;;;;;;23.20;16.00;;;;;;;-147.95;100.00;58458.38;5090872;28;20071;-78
2023/09/08 03:53:54;;;;;;;28.95;18.20;;;;;;;-147.95;100.00;58458.38;5076281;28;20036;-78
2023/09/08 03:56:20;;;;;;;24.15;14.27;;;;;;;-147.95;100.00;58458.38;5088107;28;20498;-78
2023/09/08 03:58:47;;;;;;;26.08;15.55;;;;;;;-147.95;100.00;58458.38;5083484;28;20243;-78
2023/09/08 04:01:14;;;;;;;32.80;17.00;;;;;;;-147.95;100.00;58458.38;5086604;28;20032;-78
2023/09/08 04:03:40;;;;;;;27.60;15.13;;;;;;;-147.95;100.00;58458.38;5058329;28;20044;-78
2023/09/08 04:06:05;;;;;;;30.67;17.92;;;;;;;-147.95;100.00;58458.38;5071622;28;20032;-78
2023/09/08 04:08:31;;;;;;;24.50;16.55;;;;;;;-147.95;100.00;58458.38;5081654;28;20174;-78
2023/09/08 04:10:56;;;;;;;29.02;16.75;;;;;;;-147.95;100.00;58458.38;5081190;28;20031;-85
2023/09/08 04:13:21;;;;;;;25.35;15.98;;;;;;;-147.95;100.00;58458.38;5054868;28;20150;-85
2023/09/08 04:15:48;;;;;;;33.67;18.60;;;;;;;-147.95;100.00;58458.38;5084100;28;20402;-85
2023/09/08 04:18:13;;;;;;;29.83;17.65;;;;;;;-147.95;100.00;58458.38;5083600;28;20177;-85
2023/09/08 04:20:39;;;;;;;27.10;18.55;;;;;;;-147.95;100.00;58458.38;5069140;28;20126;-85
2023/09/08 04:23:04;;;;;;;26.05;16.77;;;;;;;-147.95;100.00;58458.38;5071023;28;20028;-86
2023/09/08 04:25:30;;;;;;;28.92;17.38;;;;;;;-147.95;100.00;58458.38;5070747;28;20479;-86
2023/09/08 04:27:55;;;;;;;34.13;18.05;;;;;;;-147.95;100.00;58458.38;5056560;28;20028;-86
2023/09/08 04:30:21;;;;;;;25.85;16.27;;;;;;;-147.95;100.00;58458.38;5074139;28;20043;-87
2023/09/08 04:32:46;;;;;;;41.90;18.77;;;;;;;-147.95;100.00;58458.38;5059209;28;20024;-87
2023/09/08 04:35:12;;;;;;;31.70;18.50;;;;;;;-147.95;100.00;58458.38;5090536;28;20042;-88
2023/09/08 04:37:39;;;;;;;35.88;19.05;;;;;;;-147.95;100.00;58458.38;5088581;28;20412;-83
2023/09/08 04:40:05;;;;;;;27.67;16.67;;;;;;;-147.95;100.00;58458.38;5084452;28;20029;-84
2023/09/08 04:42:31;;;;;;;33.42;18.02;;;;;;;-147.95;100.00;58458.38;5071541;28;20020;-86
2023/09/08 04:44:56;;;;;;;25.42;17.00;;;;;;;-147.95;100.00;58458.38;5070652;28;20032;-83
2023/09/08 04:47:21;;;;;;;33.15;18.35;;;;;;;-147.95;100.00;58458.38;5083985;28;20024;-83
2023/09/08 04:49:49;;;;;;;35.65;18.38;;;;;;;-147.95;100.00;58458.38;5068378;28;20064;-85
2023/09/08 04:52:15;;;;;;;34.58;18.77;;;;;;;-147.95;100.00;58458.38;5081326;28;20123;-85
2023/09/08 04:54:41;;;;;;;32.92;17.77;;;;;;;-147.95;100.00;58458.38;5085498;28;20039;-85
2023/09/08 04:57:06;;;;;;;29.58;18.45;;;;;;;-147.95;100.00;58458.38;5070028;28;20020;-86
2023/09/08 04:59:32;;;;;;;40.53;20.30;;;;;;;-147.95;100.00;58458.38;5091885;28;20028;-87
2023/09/08 05:01:58;;;;;;;37.58;18.23;;;;;;;-147.95;100.00;58458.38;5070660;28;20078;-86
2023/09/08 05:04:24;;;;;;;30.30;17.83;;;;;;;-147.95;100.00;58458.38;5072235;28;20032;-86
2023/09/08 05:06:49;;;;;;;40.15;20.02;;;;;;;-147.95;100.00;58458.38;5082695;28;20035;-85
2023/09/08 05:09:15;;;;;;;37.60;17.70;;;;;;;-147.95;100.00;58458.38;5087085;28;20039;-86
2023/09/08 05:11:41;;;;;;;37.42;18.50;;;;;;;-147.95;100.00;58458.38;5050679;28;20032;-86
2023/09/08 05:14:06;;;;;;;36.90;19.63;;;;;;;-147.95;100.00;58458.38;5082000;28;20036;-85
2023/09/08 05:16:45;;;;;;;40.10;19.13;;;;;;;-147.95;100.00;58458.38;5068113;28;20109;-85
2023/09/08 05:19:11;;;;;;;45.10;20.60;;;;;;;-147.95;100.00;58458.38;5071980;28;20501;-84
2023/09/08 05:21:36;;;;;;;34.80;21.02;;;;;;;-147.95;100.00;58458.38;5069253;28;20044;-79
2023/09/08 05:24:02;;;;;;;40.22;21.15;;;;;;;-147.95;100.00;58458.38;5069244;28;20044;-79
2023/09/08 05:26:28;;;;;;;41.03;21.90;;;;;;;-147.95;100.00;58458.38;5063700;28;20036;-79
2023/09/08 05:28:53;;;;;;;41.45;21.13;;;;;;;-147.95;100.00;58458.38;5085257;28;20028;-79
2023/09/08 05:31:18;;;;;;;43.17;20.52;;;;;;;-147.95;100.00;58458.38;5077185;28;20032;-79
2023/09/08 05:33:44;;;;;;;41.60;20.67;;;;;;;-147.95;100.00;58458.38;5068063;28;20028;-79
2023/09/08 05:36:09;;;;;;;37.05;19.42;;;;;;;-147.95;100.00;58458.38;5083807;28;20467;-79
2023/09/08 05:38:35;;;;;;;37.13;21.05;;;;;;;-147.95;100.00;58458.38;5087046;28;20169;-79
2023/09/08 05:41:00;;;;;;;40.50;21.27;;;;;;;-147.95;100.00;58458.38;5085342;28;20062;-79
2023/09/08 05:43:26;;;;;;;39.97;21.30;;;;;;;-147.95;100.00;58458.38;5088909;28;20032;-80
2023/09/08 05:45:51;;;;;;;39.45;21.30;;;;;;;-147.95;100.00;58458.38;5081644;28;20032;-79
2023/09/08 05:48:17;;;;;;;41.88;23.33;;;;;;;-147.95;100.00;58458.38;5078519;28;20033;-78
2023/09/08 05:50:43;;;;;;;41.35;24.02;;;;;;;-147.95;100.00;58458.38;5044887;28;20149;-79
2023/09/08 05:53:08;;;;;;;38.75;23.42;;;;;;;-147.95;100.00;58458.38;5070187;28;20108;-79
2023/09/08 05:55:34;;;;;;;45.85;23.52;;;;;;;-147.95;100.00;58458.38;5082420;28;20131;-79
2023/09/08 05:57:59;;;;;;;42.83;23.63;;;;;;;-147.95;100.00;58458.38;5087766;28;20110;-80
2023/09/08 06:00:24;;;;;;;45.72;22.23;;;;;;;-147.95;100.00;58458.38;5062329;28;20035;-79
2023/09/08 06:02:50;;;;;;;45.83;25.02;;;;;;;-147.95;100.00;58458.38;5083210;28;20387;-79
2023/09/08 06:05:15;;;;;;;47.80;26.27;;;;;;;-147.95;100.00;58458.38;5065142;28;20032;-79
2023/09/08 06:07:41;;;;;;;43.58;26.23;;;;;;;-147.95;100.00;58458.38;5065516;28;20395;-79
2023/09/08 06:10:06;;;;;;;43.03;26.33;;;;;;;-147.95;100.00;58458.38;5083202;28;20043;-79
2023/09/08 06:12:32;;;;;;;44.85;25.73;;;;;;;-147.95;100.00;58458.38;5063547;28;20115;-79
2023/09/08 06:14:57;;;;;;;40.92;27.40;;;;;;;-147.95;100.00;58458.38;5065270;28;20131;-78
2023/09/08 06:17:23;;;;;;;44.22;25.92;;;;;;;-147.95;100.00;58458.38;5066380;28;20059;-79
2023/09/08 06:19:48;;;;;;;34.95;21.70;;;;;;;-147.95;100.00;58458.38;5077997;28;20039;-79
2023/09/08 06:22:13;;;;;;;42.67;20.85;;;;;;;-147.95;100.00;58458.38;5071059;28;20028;-79
2023/09/08 06:24:40;;;;;;;28.30;17.20;;;;;;;-147.95;100.00;58458.38;5082483;28;20125;-79
2023/09/08 06:27:06;;;;;;;38.13;18.40;;;;;;;-147.95;100.00;58458.38;5083161;28;20134;-79
2023/09/08 06:29:33;;;;;;;29.25;18.38;;;;;;;-147.95;100.00;58458.38;5083171;28;20032;-79
2023/09/08 06:31:58;;;;;;;35.25;19.58;;;;;;;-147.95;100.00;58458.38;5086908;28;20028;-78
2023/09/08 06:34:24;;;;;;;27.95;16.60;;;;;;;-147.95;100.00;58458.38;5082891;28;20031;-78
2023/09/08 06:36:49;;;;;;;27.85;17.52;;;;;;;-147.95;100.00;58458.38;5068905;28;20509;-79
2023/09/08 06:39:14;;;;;;;24.95;16.67;;;;;;;-147.95;100.00;58458.38;5084652;28;20039;-79
2023/09/08 06:41:40;;;;;;;32.05;17.10;;;;;;;-147.95;100.00;58458.38;5050348;28;20046;-79
2023/09/08 06:44:05;;;;;;;28.25;16.90;;;;;;;-147.95;100.00;58458.38;5079844;28;20244;-79
2023/09/08 06:46:31;;;;;;;29.08;15.88;;;;;;;-147.95;100.00;58458.38;5080914;28;20032;-79
2023/09/08 06:48:56;;;;;;;25.73;16.05;;;;;;;-147.95;100.00;58458.38;5079764;28;20040;-79
2023/09/08 06:51:22;;;;;;;29.08;15.20;;;;;;;-147.95;100.00;58458.38;5076739;28;20024;-80
2023/09/08 06:53:57;;;;;;;33.25;16.30;;;;;;;-147.95;100.00;58458.38;5064141;28;20420;-79
2023/09/08 06:56:23;;;;;;;25.02;14.77;;;;;;;-147.95;100.00;58458.38;5066795;28;20036;-78
2023/09/08 06:58:49;;;;;;;29.25;15.82;;;;;;;-147.95;100.00;58458.38;5085052;28;20042;-79
2023/09/08 07:01:15;;;;;;;25.95;15.68;;;;;;;-147.95;100.00;58458.38;5079637;28;20067;-79
2023/09/08 07:03:40;;;;;;;26.02;15.65;;;;;;;-147.95;100.00;58458.38;5085136;28;20032;-79
2023/09/08 07:06:06;;;;;;;32.03;15.77;;;;;;;-147.95;100.00;58458.38;5074329;28;20047;-79
2023/09/08 07:08:31;;;;;;;24.02;15.88;;;;;;;-147.95;100.00;58458.38;5085649;28;20024;-79
2023/09/08 07:10:57;;;;;;;27.38;16.50;;;;;;;-147.95;100.00;58458.38;5082111;28;20041;-80
2023/09/08 07:13:22;;;;;;;29.65;17.30;;;;;;;-147.95;100.00;58458.38;5083929;28;20371;-80
2023/09/08 07:15:47;;;;;;;28.10;16.38;;;;;;;-147.95;100.00;58458.38;5082979;28;20159;-80
2023/09/08 07:18:13;;;;;;;28.23;16.85;;;;;;;-147.95;100.00;58458.38;5063865;28;20032;-80
2023/09/08 07:20:38;;;;;;;32.80;15.82;;;;;;;-147.95;100.00;58458.38;5067253;28;20092;-79
2023/09/08 07:23:03;;;;;;;31.17;15.98;;;;;;;-147.95;100.00;58458.38;5084444;28;20032;-79
2023/09/08 07:25:29;;;;;;;24.02;16.25;;;;;;;-147.95;100.00;58458.38;5062145;28;20526;-80
2023/09/08 07:27:54;;;;;;;27.60;17.55;;;;;;;-147.95;100.00;58458.38;5079792;28;20052;-79
2023/09/08 07:30:20;;;;;;;30.20;17.48;;;;;;;-147.95;100.00;58458.38;5085169;28;20111;-79
2023/09/08 07:32:46;;;;;;;24.35;15.77;;;;;;;-147.95;100.00;58458.38;5083675;28;20097;-79
2023/09/08 07:35:16;;;;;;;29.20;17.42;;;;;;;-147.95;100.00;58458.38;5083833;28;20499;-79
2023/09/08 07:37:42;;;;;;;27.02;17.63;;;;;;;-147.95;100.00;58458.38;5087668;28;20479;-80
2023/09/08 07:40:09;;;;;;;29.65;17.17;;;;;;;-147.95;100.00;58458.38;5082761;28;20099;-80
2023/09/08 07:42:35;;;;;;;23.73;16.52;;;;;;;-147.95;100.00;58458.38;5087586;28;20399;-79
2023/09/08 07:45:00;;;;;;;25.77;16.88;;;;;;;-147.95;100.00;58458.38;5090381;28;20028;-80
2023/09/08 07:47:26;;;;;;;26.65;17.02;;;;;;;-147.95;100.00;58458.38;5058019;28;20044;-80
2023/09/08 07:49:51;;;;;;;24.52;17.38;;;;;;;-147.95;100.00;58458.38;5088497;28;20020;-80
2023/09/08 07:52:16;;;;;;;23.70;15.77;;;;;;;-147.95;100.00;58458.38;5081921;28;20486;-79
2023/09/08 07:54:42;;;;;;;28.58;17.83;;;;;;;-147.95;100.00;58458.38;5089514;28;20131;-80
2023/09/08 07:57:09;;;;;;;29.98;16.70;;;;;;;-147.95;100.00;58458.38;5070979;28;20044;-80
2023/09/08 07:59:34;;;;;;;35.90;18.45;;;;;;;-147.95;100.00;58458.38;5080743;28;20039;-80
2023/09/08 08:02:00;;;;;;;29.52;16.83;;;;;;;-147.95;100.00;58458.38;5081924;28;20024;-80
2023/09/08 08:04:26;;;;;;;26.67;17.77;;;;;;;-147.95;100.00;58458.38;5087895;28;20055;-80
2023/09/08 08:06:51;;;;;;;26.25;16.15;;;;;;;-147.95;100.00;58458.38;5086872;28;20036;-80
2023/09/08 08:09:16;;;;;;;33.70;16.35;;;;;;;-147.95;100.00;58458.38;5081256;28;20051;-80
2023/09/08 08:11:42;;;;;;;25.48;16.13;;;;;;;-147.95;100.00;58458.38;5083774;28;20097;-80
2023/09/08 08:14:07;;;;;;;27.23;16.63;;;;;;;-147.95;100.00;58458.38;5088465;28;20028;-80
2023/09/08 08:16:33;;;;;;;28.52;16.60;;;;;;;-147.95;100.00;58458.38;5081170;28;20112;-80
2023/09/08 08:18:59;;;;;;;26.67;16.33;;;;;;;-147.95;100.00;58458.38;5072001;28;20016;-80
2023/09/08 08:21:24;;;;;;;25.13;15.35;;;;;;;-147.95;100.00;58458.38;5085799;28;20043;-80
2023/09/08 08:23:50;;;;;;;26.27;15.80;;;;;;;-147.95;100.00;58458.38;5088404;28;20032;-80
2023/09/08 08:26:16;;;;;;;27.48;15.57;;;;;;;-147.95;100.00;58458.38;5077430;28;20056;-80
2023/09/08 08:28:41;;;;;;;22.55;14.77;;;;;;;-147.95;100.00;58458.38;5071467;28;20028;-80
2023/09/08 08:31:06;;;;;;;23.42;13.82;;;;;;;-147.95;100.00;58458.38;5083656;28;20037;-80
2023/09/08 08:33:32;;;;;;;26.13;14.23;;;;;;;-147.95;100.00;58458.38;5088922;28;20038;-80
2023/09/08 08:35:57;;;;;;;23.67;14.10;;;;;;;-147.95;100.00;58458.38;5085730;28;20025;-80
2023/09/08 08:38:23;;;;;;;28.02;14.93;;;;;;;-147.95;100.00;58458.38;5084840;28;20028;-80
2023/09/08 08:40:48;;;;;;;29.40;14.50;;;;;;;-147.95;100.00;58458.38;5064263;28;20036;-80
2023/09/08 08:43:14;;;;;;;21.58;14.38;;;;;;;-147.95;100.00;58458.38;5090885;28;20035;-80
2023/09/08 08:45:43;;;;;;;24.85;14.98;;;;;;;-147.95;100.00;58458.38;5085919;28;20040;-80
2023/09/08 08:48:10;;;;;;;19.13;13.20;;;;;;;-147.95;100.00;58458.38;5088108;28;20085;-80
2023/09/08 08:50:36;;;;;;;20.58;13.07;;;;;;;-147.95;100.00;58458.38;5078871;28;20145;-80
2023/09/08 08:53:04;;;;;;;25.95;13.20;;;;;;;-147.95;100.00;58458.38;5085795;28;20433;-80
2023/09/08 08:55:30;;;;;;;19.27;13.57;;;;;;;-147.95;100.00;58458.38;5090210;28;20039;-80
2023/09/08 08:58:05;;;;;;;23.05;13.95;;;;;;;-147.95;100.00;58458.38;5089193;28;20024;-80
2023/09/08 09:00:34;;;;;;;22.92;11.20;;;;;;;-147.95;100.00;58458.38;5086924;28;20031;-78
2023/09/08 09:03:00;;;;;;;15.85;12.07;;;;;;;-147.95;100.00;58458.38;5085700;28;20403;-80
2023/09/08 09:05:26;;;;;;;20.77;12.98;;;;;;;-147.95;100.00;58458.38;5088362;28;20402;-80
2023/09/08 09:07:52;;;;;;;23.67;12.18;;;;;;;-147.95;100.00;58458.38;5070205;28;20093;-80
2023/09/08 09:10:18;;;;;;;23.50;11.63;;;;;;;-147.95;100.00;58458.38;5068423;28;20100;-80
2023/09/08 09:12:43;;;;;;;19.13;10.50;;;;;;;-147.95;100.00;58458.38;5085164;28;20102;-78
2023/09/08 09:15:09;;;;;;;18.17;11.45;;;;;;;-147.95;100.00;58458.38;5070369;28;20051;-78
2023/09/08 09:17:35;;;;;;;19.17;10.48;;;;;;;-147.95;100.00;58458.38;5064788;28;20483;-80
2023/09/08 09:20:20;;;;;;;20.77;10.57;;;;;;;-147.95;100.00;58458.38;5091979;28;20099;-80
2023/09/08 09:22:47;;;;;;;16.08;8.93;;;;;;;-147.95;100.00;58458.38;5085480;28;20797;-80
2023/09/08 09:25:31;;;;;;;22.13;9.27;;;;;;;-147.95;100.00;58458.38;5086838;28;20052;-80
2023/09/08 09:27:59;;;;;;;13.80;9.65;;;;;;;-147.95;100.00;58458.38;5088132;28;20031;-80
2023/09/08 09:30:26;;;;;;;20.73;10.07;;;;;;;-147.95;100.00;58458.38;5084323;28;20047;-80
2023/09/08 09:33:05;;;;;;;17.23;10.10;;;;;;;-147.95;100.00;58458.38;5083945;28;20123;-80
2023/09/08 09:35:48;;;;;;;14.98;10.32;;;;;;;-147.95;100.00;58458.38;5088785;28;20032;-80
2023/09/08 09:38:13;;;;;;;19.23;11.10;;;;;;;-147.95;100.00;58458.38;5086276;28;20028;-80
2023/09/08 09:40:39;;;;;;;18.25;10.48;;;;;;;-147.95;100.00;58458.38;5089208;28;20669;-80
2023/09/08 09:43:06;;;;;;;19.75;10.63;;;;;;;-147.95;100.00;58458.38;5069605;28;20034;-80
2023/09/08 09:45:35;;;;;;;22.38;10.80;;;;;;;-147.95;100.00;58458.38;5065788;28;20398;-80
2023/09/08 09:48:04;;;;;;;18.58;10.43;;;;;;;-147.95;100.00;58458.38;5086138;28;20038;-80
2023/09/08 09:50:34;;;;;;;17.20;10.25;;;;;;;-147.95;100.00;58458.38;5088555;28;20048;-80
2023/09/08 09:53:01;;;;;;;16.55;10.40;;;;;;;-147.95;100.00;58458.38;5086995;28;20389;-80
2023/09/08 09:55:27;;;;;;;13.00;9.52;;;;;;;-147.95;100.00;58458.38;5088416;28;20375;-80
2023/09/08 09:58:03;;;;;;;17.90;9.38;;;;;;;-147.95;100.00;58458.38;5067403;28;20039;-80
2023/09/08 10:00:30;;;;;;;14.02;9.05;;;;;;;-147.95;100.00;58458.38;5067362;28;20032;-80
2023/09/08 10:02:56;;;;;;;15.77;8.23;;;;;;;-147.95;100.00;58458.38;5087784;28;20119;-80
2023/09/08 10:05:23;;;;;;;14.35;7.90;;;;;;;-147.95;100.00;58458.38;5088025;28;20028;-80
2023/09/08 10:07:50;;;;;;;10.35;7.57;;;;;;;-147.95;100.00;58458.38;5080740;28;20028;-80
2023/09/08 10:10:17;;;;;;;18.23;7.63;;;;;;;-147.95;100.00;58458.38;5088279;28;20035;-80
2023/09/08 10:12:47;;;;;;;16.42;7.88;;;;;;;-147.95;100.00;58458.38;5068184;28;20020;-80
2023/09/08 10:15:17;;;;;;;20.42;7.55;;;;;;;-147.95;100.00;58458.38;5083040;28;20097;-80
2023/09/08 10:17:44;;;;;;;11.40;7.70;;;;;;;-147.95;100.00;58458.38;5088477;28;20028;-80
2023/09/08 10:20:15;;;;;;;12.95;7.90;;;;;;;-147.95;100.00;58458.38;5078520;28;20115;-80
2023/09/08 10:22:42;;;;;;;13.88;7.97;;;;;;;-147.95;100.00;58458.38;5089432;28;20081;-80
2023/09/08 10:25:09;;;;;;;12.73;7.78;;;;;;;-147.95;100.00;58458.38;5065922;28;20139;-80
2023/09/08 10:27:36;;;;;;;14.95;9.15;;;;;;;-147.95;100.00;58458.38;5088066;28;20031;-80
2023/09/08 10:30:07;;;;;;;16.40;8.13;;;;;;;-147.95;100.00;58458.38;5081847;28;20028;-80
2023/09/08 10:32:35;;;;;;;20.38;7.82;;;;;;;-147.95;100.00;58458.38;5087292;28;20532;-80
2023/09/08 10:35:06;;;;;;;11.55;7.93;;;;;;;-147.95;100.00;58458.38;5090289;28;20090;-80
2023/09/08 10:37:32;;;;;;;14.52;7.95;;;;;;;-147.95;100.00;58458.38;5102594;28;20448;-80
2023/09/08 10:40:20;;;;;;;14.38;7.40;;;;;;;-147.95;100.00;58458.38;5079112;28;20509;-80
2023/09/08 10:42:46;;;;;;;22.50;7.18;;;;;;;-147.95;100.00;58458.38;5088873;28;20024;-80
2023/09/08 10:45:20;;;;;;;11.15;8.07;;;;;;;-147.95;100.00;58458.38;5084114;28;20103;-80
2023/09/08 10:47:45;;;;;;;11.00;7.30;;;;;;;-147.95;100.00;58458.38;5085455;28;20035;-80
2023/09/08 10:50:18;;;;;;;14.65;8.23;;;;;;;-147.95;100.00;58458.38;5087920;28;20028;-80
2023/09/08 10:52:44;;;;;;;16.10;7.95;;;;;;;-147.95;100.00;58458.38;5087010;28;20028;-79